Time;durP1;ratioP1;P1;durP2;ratioP2;P2;SDS_P1;SDS_P2;PMS_P1;PMS_P2;Temp;Humidity;BMP_temperature;BMP_pressure;BME280_temperature;BME280_humidity;BME280_pressure;Samples;Min_cycle;Max_cycle;Signal;HPM_P1;HPM_P2
2021/11/06 00:01:06;;;;;;;6.50;3.50;;;7.30;99.50;;;;;;5007553;28;20029;-60
2021/11/06 00:03:32;;;;;;;9.57;4.85;;;7.30;99.60;;;;;;5010518;28;20046;-60
2021/11/06 00:05:57;;;;;;;6.57;4.03;;;7.30;99.60;;;;;;4994536;28;20044;-60
2021/11/06 00:08:23;;;;;;;7.25;4.53;;;7.30;99.70;;;;;;4994321;28;20017;-60
2021/11/06 00:10:48;;;;;;;8.60;4.45;;;7.30;99.70;;;;;;5012436;28;20104;-60
2021/11/06 00:13:14;;;;;;;8.98;4.53;;;7.30;99.70;;;;;;5006382;28;20104;-60
2021/11/06 00:15:40;;;;;;;8.23;5.30;;;7.30;99.80;;;;;;5011415;28;20031;-60
2021/11/06 00:18:06;;;;;;;8.30;5.70;;;7.30;99.80;;;;;;5005665;28;20504;-60
2021/11/06 00:20:31;;;;;;;10.40;5.35;;;7.20;99.80;;;;;;5008434;28;20092;-60
2021/11/06 00:22:57;;;;;;;7.68;5.13;;;7.20;99.80;;;;;;4990184;28;20117;-60
2021/11/06 00:25:24;;;;;;;8.43;5.70;;;7.20;99.80;;;;;;5007346;28;20057;-60
2021/11/06 00:27:50;;;;;;;13.65;6.35;;;7.20;99.80;;;;;;5010667;28;20060;-60
2021/11/06 00:30:16;;;;;;;13.23;6.70;;;7.20;99.80;;;;;;5011962;28;20030;-60
2021/11/06 00:32:42;;;;;;;8.50;5.68;;;7.20;99.90;;;;;;5009143;28;20022;-60
2021/11/06 00:35:09;;;;;;;11.30;6.70;;;7.20;99.90;;;;;;4994602;28;20113;-60
2021/11/06 00:37:38;;;;;;;12.18;6.80;;;7.10;99.90;;;;;;5001800;28;20018;-60
2021/11/06 00:40:05;;;;;;;13.93;6.43;;;7.10;99.90;;;;;;5011382;28;20025;-60
2021/11/06 00:42:30;;;;;;;9.50;6.82;;;7.10;99.90;;;;;;5010793;28;20196;-60
2021/11/06 00:44:56;;;;;;;12.57;6.57;;;7.10;99.90;;;;;;5005227;28;20120;-60
2021/11/06 00:47:21;;;;;;;10.57;6.72;;;7.00;99.90;;;;;;5010700;28;20109;-60
2021/11/06 00:49:47;;;;;;;10.90;6.30;;;7.00;99.90;;;;;;5005251;28;20030;-60
2021/11/06 00:52:12;;;;;;;8.45;6.38;;;7.00;99.90;;;;;;5009537;28;20477;-60
2021/11/06 00:54:38;;;;;;;11.10;6.18;;;7.00;99.90;;;;;;5007384;28;20367;-60
2021/11/06 00:57:04;;;;;;;11.45;6.85;;;7.00;99.90;;;;;;5008333;28;20026;-60
2021/11/06 00:59:29;;;;;;;9.25;5.88;;;7.00;99.90;;;;;;5008592;28;20497;-60
2021/11/06 01:01:55;;;;;;;10.30;6.05;;;7.00;99.90;;;;;;5011704;28;20042;-60
2021/11/06 01:04:20;;;;;;;10.73;6.05;;;7.10;99.90;;;;;;5011500;28;20122;-60
2021/11/06 01:06:46;;;;;;;9.30;6.40;;;7.10;99.90;;;;;;5010645;28;20037;-60
2021/11/06 01:09:12;;;;;;;11.32;6.85;;;7.10;99.90;;;;;;5003681;28;20022;-60
2021/11/06 01:11:38;;;;;;;10.68;6.53;;;7.10;99.90;;;;;;5010515;28;20450;-60
2021/11/06 01:14:04;;;;;;;13.50;6.65;;;7.10;99.90;;;;;;5008408;28;20030;-60
2021/11/06 01:16:30;;;;;;;11.55;6.70;;;7.10;99.90;;;;;;5010577;28;20473;-60
2021/11/06 01:18:56;;;;;;;12.13;7.03;;;7.10;99.90;;;;;;4988782;28;20050;-60
2021/11/06 01:21:22;;;;;;;22.63;8.65;;;7.10;99.90;;;;;;5014082;28;20025;-60
2021/11/06 01:23:48;;;;;;;17.60;8.68;;;7.10;99.90;;;;;;5010223;28;20022;-60
2021/11/06 01:26:13;;;;;;;17.35;7.97;;;7.10;99.90;;;;;;5013025;28;20504;-60
2021/11/06 01:28:39;;;;;;;19.13;8.73;;;7.10;99.90;;;;;;5013790;28;20057;-60
2021/11/06 01:31:04;;;;;;;18.42;9.40;;;7.10;99.80;;;;;;5011948;28;20033;-60
2021/11/06 01:33:30;;;;;;;20.42;9.00;;;7.20;99.90;;;;;;4997511;28;20037;-60
2021/11/06 01:35:56;;;;;;;19.90;9.80;;;7.20;99.80;;;;;;5010504;28;20042;-60
2021/11/06 01:38:21;;;;;;;22.05;9.02;;;7.20;99.80;;;;;;5013350;28;20479;-60
2021/11/06 01:40:47;;;;;;;22.95;11.50;;;7.20;99.80;;;;;;5011504;28;20031;-60
2021/11/06 01:43:13;;;;;;;26.75;10.75;;;7.20;99.70;;;;;;5011390;28;20121;-60
2021/11/06 01:45:39;;;;;;;25.48;11.73;;;7.20;99.70;;;;;;5012642;28;20036;-60
2021/11/06 01:48:05;;;;;;;26.85;11.48;;;7.20;99.70;;;;;;5010857;28;20023;-60
2021/11/06 01:50:31;;;;;;;26.10;11.68;;;7.20;99.80;;;;;;4989274;28;20030;-60
2021/11/06 01:52:56;;;;;;;31.83;12.88;;;7.20;99.80;;;;;;5014514;28;20025;-60
2021/11/06 01:55:22;;;;;;;25.45;11.05;;;7.20;99.70;;;;;;5013431;28;20121;-60
2021/11/06 01:57:49;;;;;;;30.00;12.45;;;7.10;99.70;;;;;;5006369;28;20028;-60
2021/11/06 02:00:19;;;;;;;25.23;11.93;;;7.10;99.60;;;;;;5009826;28;20076;-60
2021/11/06 02:02:45;;;;;;;30.20;12.65;;;7.10;99.60;;;;;;5014467;28;20040;-60
2021/11/06 02:05:14;;;;;;;27.38;12.60;;;7.10;99.60;;;;;;5009543;28;20121;-60
2021/11/06 02:07:40;;;;;;;28.00;12.90;;;7.10;99.60;;;;;;5014300;28;20409;-60
2021/11/06 02:10:07;;;;;;;29.98;12.63;;;7.20;99.60;;;;;;5013462;28;20026;-60
2021/11/06 02:12:33;;;;;;;27.88;12.45;;;7.20;99.60;;;;;;5008725;28;20026;-60
2021/11/06 02:14:59;;;;;;;26.10;12.20;;;7.10;99.60;;;;;;5013120;28;20497;-60
2021/11/06 02:17:25;;;;;;;28.63;12.38;;;7.10;99.60;;;;;;5011166;28;20133;-60
2021/11/06 02:19:51;;;;;;;29.85;11.77;;;7.10;99.60;;;;;;5007140;28;20097;-60
2021/11/06 02:22:16;;;;;;;26.90;11.25;;;7.10;99.60;;;;;;5009551;28;20038;-60
2021/11/06 02:24:42;;;;;;;27.67;11.23;;;7.10;99.70;;;;;;4996712;28;20076;-60
2021/11/06 02:27:07;;;;;;;28.15;11.82;;;7.10;99.70;;;;;;5014003;28;20504;-60
2021/11/06 02:29:34;;;;;;;23.65;11.80;;;7.10;99.60;;;;;;5011914;28;20033;-60
2021/11/06 02:32:00;;;;;;;24.05;10.80;;;7.10;99.60;;;;;;5013184;28;20037;-60
2021/11/06 02:34:26;;;;;;;22.08;10.15;;;7.10;99.60;;;;;;5012025;28;20265;-60
2021/11/06 02:36:52;;;;;;;22.27;10.43;;;7.10;99.50;;;;;;4990479;28;20025;-60
2021/11/06 02:39:17;;;;;;;23.83;9.57;;;7.10;99.50;;;;;;5010991;28;20490;-60
2021/11/06 02:41:43;;;;;;;26.50;11.82;;;7.10;99.50;;;;;;5013885;28;20030;-60
2021/11/06 02:44:17;;;;;;;20.02;9.52;;;7.10;99.50;;;;;;5006264;28;20072;-60
2021/11/06 02:46:43;;;;;;;24.05;10.10;;;7.20;99.50;;;;;;4993621;28;20034;-60
2021/11/06 02:49:09;;;;;;;22.08;10.57;;;7.20;99.50;;;;;;5009757;28;20030;-60
2021/11/06 02:51:35;;;;;;;24.75;11.27;;;7.10;99.50;;;;;;4995564;28;20433;-60
2021/11/06 02:54:01;;;;;;;23.23;10.43;;;7.10;99.50;;;;;;5013622;28;20029;-60
2021/11/06 02:56:28;;;;;;;18.48;10.25;;;7.10;99.50;;;;;;5007608;28;20037;-60
2021/11/06 02:58:55;;;;;;;20.95;10.30;;;7.10;99.40;;;;;;5011154;28;20444;-60
2021/11/06 03:01:21;;;;;;;20.42;10.05;;;7.10;99.40;;;;;;5012568;28;20030;-60
2021/11/06 03:03:47;;;;;;;22.05;11.85;;;7.10;99.40;;;;;;5013279;28;20033;-60
2021/11/06 03:06:14;;;;;;;25.52;10.38;;;7.10;99.30;;;;;;5012586;28;20037;-60
2021/11/06 03:08:39;;;;;;;21.35;10.15;;;7.10;99.30;;;;;;5012790;28;20502;-60
2021/11/06 03:11:05;;;;;;;29.25;11.07;;;7.10;99.30;;;;;;5012472;28;20026;-60
2021/11/06 03:13:31;;;;;;;24.52;11.10;;;7.10;99.30;;;;;;5012636;28;20490;-60
2021/11/06 03:15:57;;;;;;;22.33;10.68;;;7.10;99.30;;;;;;5012481;28;20038;-60
2021/11/06 03:18:23;;;;;;;21.80;10.40;;;7.10;99.30;;;;;;4994848;28;20125;-60
2021/11/06 03:20:48;;;;;;;23.00;9.82;;;7.10;99.30;;;;;;5012398;28;20025;-60
2021/11/06 03:23:14;;;;;;;19.83;9.25;;;7.10;99.30;;;;;;5012461;28;20018;-60
2021/11/06 03:25:40;;;;;;;17.38;9.48;;;7.20;99.30;;;;;;4994804;28;20033;-60
2021/11/06 03:28:06;;;;;;;24.88;11.30;;;7.20;99.30;;;;;;5012279;28;20030;-60
2021/11/06 03:30:31;;;;;;;16.15;9.00;;;7.20;99.20;;;;;;5004450;28;20033;-60
2021/11/06 03:32:57;;;;;;;18.83;11.07;;;7.20;99.20;;;;;;5012414;28;20136;-60
2021/11/06 03:35:24;;;;;;;28.58;11.85;;;7.10;99.10;;;;;;5007001;28;20398;-60
2021/11/06 03:37:50;;;;;;;21.50;10.00;;;7.10;99.10;;;;;;5012300;28;20486;-60
2021/11/06 03:40:16;;;;;;;18.75;10.10;;;7.10;99.20;;;;;;5011620;28;20161;-60
2021/11/06 03:42:42;;;;;;;20.65;9.73;;;7.10;99.20;;;;;;5012262;28;20018;-60
2021/11/06 03:45:09;;;;;;;20.30;10.32;;;7.10;99.30;;;;;;5012148;28;20034;-60
2021/11/06 03:47:34;;;;;;;25.45;11.23;;;7.10;99.30;;;;;;5012126;28;20112;-60
2021/11/06 03:50:00;;;;;;;21.00;9.88;;;7.10;99.30;;;;;;5011862;28;20553;-60
2021/11/06 03:52:26;;;;;;;19.83;11.00;;;7.10;99.30;;;;;;5012211;28;20512;-60
2021/11/06 03:54:52;;;;;;;23.90;11.65;;;7.10;99.30;;;;;;5011963;28;20033;-60
2021/11/06 03:57:17;;;;;;;21.80;11.93;;;7.00;99.30;;;;;;5011941;28;20026;-60
2021/11/06 03:59:43;;;;;;;23.65;10.52;;;7.00;99.30;;;;;;5012363;28;20407;-60
2021/11/06 04:02:08;;;;;;;24.77;11.38;;;7.00;99.40;;;;;;4976836;28;1015307;-60
2021/11/06 04:04:34;;;;;;;22.13;10.40;;;7.00;99.50;;;;;;5012582;28;20692;-60
2021/11/06 04:07:00;;;;;;;22.90;11.77;;;7.00;99.50;;;;;;5012678;28;20021;-60
2021/11/06 04:09:25;;;;;;;21.90;11.02;;;7.00;99.60;;;;;;5008241;28;20113;-60
2021/11/06 04:11:51;;;;;;;20.10;12.05;;;7.00;99.60;;;;;;5012367;28;20025;-60
2021/11/06 04:14:16;;;;;;;24.15;12.35;;;6.90;99.70;;;;;;5012606;28;20076;-60
2021/11/06 04:16:42;;;;;;;22.65;12.07;;;6.90;99.70;;;;;;5008917;28;20375;-60
2021/11/06 04:19:08;;;;;;;22.10;11.93;;;6.90;99.80;;;;;;5009409;28;20038;-60
2021/11/06 04:21:33;;;;;;;24.60;11.85;;;6.90;99.80;;;;;;5012503;28;20018;-60
2021/11/06 04:23:59;;;;;;;28.75;12.10;;;6.90;99.80;;;;;;5012575;28;20030;-60
2021/11/06 04:26:25;;;;;;;20.33;11.65;;;6.90;99.90;;;;;;5012594;28;20394;-60
2021/11/06 04:28:51;;;;;;;23.08;12.02;;;6.90;99.90;;;;;;5012378;28;20470;-60
2021/11/06 04:31:16;;;;;;;22.80;12.55;;;6.90;99.90;;;;;;5012293;28;20049;-60
2021/11/06 04:33:42;;;;;;;18.90;11.18;;;6.90;99.90;;;;;;5012164;28;20087;-60
2021/11/06 04:36:08;;;;;;;20.55;11.07;;;6.90;99.90;;;;;;5012319;28;20100;-60
2021/11/06 04:38:35;;;;;;;20.98;11.23;;;6.90;99.90;;;;;;5012412;28;20025;-60
2021/11/06 04:41:00;;;;;;;19.75;11.02;;;6.90;99.90;;;;;;5012235;28;20469;-60
2021/11/06 04:43:26;;;;;;;21.67;12.35;;;7.00;99.90;;;;;;4994544;28;20046;-60
2021/11/06 04:45:51;;;;;;;17.30;11.18;;;7.00;99.90;;;;;;5012127;28;20026;-60
2021/11/06 04:48:17;;;;;;;24.85;11.57;;;6.90;99.90;;;;;;5012465;28;20037;-60
2021/11/06 04:50:42;;;;;;;22.80;12.63;;;7.00;99.90;;;;;;4994575;28;20075;-60
2021/11/06 04:53:08;;;;;;;19.20;11.90;;;7.00;99.90;;;;;;5013739;28;20026;-60
2021/11/06 04:55:33;;;;;;;21.05;12.68;;;7.00;99.90;;;;;;5016191;28;20076;-60
2021/11/06 04:57:59;;;;;;;19.77;11.02;;;7.00;99.90;;;;;;5015817;28;20073;-60
2021/11/06 05:00:24;;;;;;;23.10;11.70;;;7.00;99.90;;;;;;5015963;28;20973;-60
2021/11/06 05:02:50;;;;;;;18.77;12.05;;;7.00;99.90;;;;;;5015871;28;20494;-60
2021/11/06 05:05:16;;;;;;;19.92;12.18;;;7.00;99.90;;;;;;5015690;28;20080;-60
2021/11/06 05:07:42;;;;;;;20.83;12.80;;;7.10;99.90;;;;;;5014935;28;20036;-60
2021/11/06 05:10:08;;;;;;;19.77;12.88;;;7.10;99.90;;;;;;5013583;28;20021;-60
2021/11/06 05:12:35;;;;;;;20.25;12.98;;;7.10;99.90;;;;;;5014498;28;20061;-60
2021/11/06 05:15:01;;;;;;;19.77;12.55;;;7.10;99.90;;;;;;5007619;28;20375;-60
2021/11/06 05:17:26;;;;;;;23.42;12.65;;;7.10;99.90;;;;;;5014728;28;20084;-60
2021/11/06 05:19:52;;;;;;;21.83;12.85;;;7.10;99.90;;;;;;4997175;28;20458;-60
2021/11/06 05:22:18;;;;;;;21.17;12.65;;;7.20;99.90;;;;;;5008098;28;20493;-60
2021/11/06 05:24:43;;;;;;;18.63;12.82;;;7.20;99.90;;;;;;5015375;28;20386;-60
2021/11/06 05:27:09;;;;;;;22.45;14.57;;;7.20;99.90;;;;;;4997764;28;20409;-60
2021/11/06 05:29:34;;;;;;;20.50;12.95;;;7.20;99.90;;;;;;5014559;28;20109;-60
2021/11/06 05:32:00;;;;;;;21.58;14.00;;;7.20;99.90;;;;;;5011193;28;20112;-60
2021/11/06 05:34:26;;;;;;;25.60;14.77;;;7.20;99.90;;;;;;4997847;28;20041;-60
2021/11/06 05:36:52;;;;;;;20.88;14.18;;;7.20;99.90;;;;;;5009380;28;20037;-60
2021/11/06 05:39:17;;;;;;;19.35;12.98;;;7.20;99.90;;;;;;5013516;28;20033;-60
2021/11/06 05:41:43;;;;;;;23.73;14.63;;;7.20;99.90;;;;;;5011990;28;20386;-60
2021/11/06 05:44:09;;;;;;;22.33;14.32;;;7.20;99.90;;;;;;5007714;28;20018;-60
2021/11/06 05:46:34;;;;;;;24.17;14.48;;;7.20;99.90;;;;;;5015093;28;20112;-60
2021/11/06 05:49:00;;;;;;;22.27;13.93;;;7.20;99.90;;;;;;5010638;28;20032;-60
2021/11/06 05:51:26;;;;;;;20.85;14.52;;;7.20;99.90;;;;;;4982633;28;20023;-60
2021/11/06 05:53:51;;;;;;;26.38;14.77;;;7.20;99.90;;;;;;5012758;28;20052;-60
2021/11/06 05:56:19;;;;;;;21.15;14.43;;;7.30;99.90;;;;;;5013001;28;20036;-60
2021/11/06 05:58:45;;;;;;;24.77;14.77;;;7.30;99.90;;;;;;5014301;28;20048;-60
2021/11/06 06:01:10;;;;;;;20.80;13.48;;;7.20;99.90;;;;;;4991080;28;20571;-60
2021/11/06 06:03:36;;;;;;;21.58;14.45;;;7.20;99.90;;;;;;5006367;28;20288;-60
2021/11/06 06:06:01;;;;;;;20.38;14.25;;;7.20;99.90;;;;;;5010504;28;20486;-60
2021/11/06 06:08:27;;;;;;;24.20;13.90;;;7.20;99.90;;;;;;5014156;28;20069;-60
2021/11/06 06:10:53;;;;;;;19.73;13.82;;;7.20;99.90;;;;;;5012116;28;20022;-60
2021/11/06 06:13:18;;;;;;;20.15;14.23;;;7.30;99.90;;;;;;5008145;28;20474;-60
2021/11/06 06:15:44;;;;;;;23.42;15.07;;;7.30;99.90;;;;;;5013983;28;20034;-60
2021/11/06 06:18:09;;;;;;;19.42;13.45;;;7.30;99.90;;;;;;5007890;28;20026;-60
2021/11/06 06:20:35;;;;;;;21.77;14.23;;;7.30;99.90;;;;;;5013929;28;20052;-60
2021/11/06 06:23:01;;;;;;;22.85;14.80;;;7.30;99.90;;;;;;5011784;28;20019;-60
2021/11/06 06:25:26;;;;;;;23.17;13.77;;;7.30;99.90;;;;;;5006682;28;20041;-60
2021/11/06 06:27:52;;;;;;;19.00;13.77;;;7.30;99.90;;;;;;4996500;28;20466;-60
2021/11/06 06:30:19;;;;;;;20.65;13.38;;;7.30;99.90;;;;;;5013825;28;20133;-60
2021/11/06 06:32:45;;;;;;;21.33;13.88;;;7.30;99.90;;;;;;5005523;28;20038;-60
2021/11/06 06:35:12;;;;;;;22.15;14.00;;;7.30;99.90;;;;;;5012761;28;20025;-60
2021/11/06 06:37:38;;;;;;;18.52;13.70;;;7.30;99.90;;;;;;5013836;28;20041;-60
2021/11/06 06:40:05;;;;;;;21.23;14.10;;;7.30;99.90;;;;;;5011385;28;20375;-60
2021/11/06 06:42:31;;;;;;;18.70;12.40;;;7.30;99.90;;;;;;5013914;28;20029;-60
2021/11/06 06:44:56;;;;;;;19.00;13.10;;;7.30;99.90;;;;;;5010465;28;20497;-60
2021/11/06 06:47:22;;;;;;;21.60;14.38;;;7.30;99.90;;;;;;5011361;28;22227;-60
2021/11/06 06:49:48;;;;;;;21.60;14.50;;;7.30;99.90;;;;;;5011449;28;20036;-60
2021/11/06 06:52:15;;;;;;;22.58;13.88;;;7.40;99.90;;;;;;4992750;28;20475;-60
2021/11/06 06:54:40;;;;;;;18.70;12.52;;;7.30;99.90;;;;;;4994003;28;20489;-60
2021/11/06 06:57:06;;;;;;;17.17;12.82;;;7.40;99.90;;;;;;5012284;28;20043;-60
2021/11/06 06:59:35;;;;;;;19.73;12.85;;;7.30;99.90;;;;;;4995804;28;20030;-60
2021/11/06 07:02:02;;;;;;;18.33;12.80;;;7.40;99.90;;;;;;4995863;28;20375;-60
2021/11/06 07:04:28;;;;;;;21.40;13.25;;;7.40;99.90;;;;;;5011096;28;20044;-60
2021/11/06 07:06:54;;;;;;;17.80;12.32;;;7.40;99.90;;;;;;5013335;28;20018;-60
2021/11/06 07:09:20;;;;;;;18.35;12.38;;;7.40;99.90;;;;;;5010980;28;20030;-60
2021/11/06 07:12:32;;;;;;;;;;;;;;;;;;;;;
2021/11/06 07:14:59;;;;;;;21.38;13.85;;;7.50;99.90;;;;;;4986939;28;20387;-60
2021/11/06 07:17:24;;;;;;;20.67;13.43;;;7.50;99.90;;;;;;5011798;28;20101;-60
2021/11/06 07:19:50;;;;;;;15.52;12.05;;;7.50;99.90;;;;;;4995480;28;20036;-60
2021/11/06 07:22:15;;;;;;;19.23;12.48;;;7.50;99.90;;;;;;5005734;28;20033;-60
2021/11/06 07:24:41;;;;;;;18.98;13.15;;;7.50;99.90;;;;;;5012112;28;20433;-60
2021/11/06 07:27:08;;;;;;;21.17;13.65;;;7.50;99.90;;;;;;5011264;28;20084;-60
2021/11/06 07:29:35;;;;;;;19.40;12.82;;;7.50;99.90;;;;;;5011187;28;20084;-61
2021/11/06 07:32:01;;;;;;;18.70;13.00;;;7.50;99.90;;;;;;5011135;28;20095;-60
2021/11/06 07:34:26;;;;;;;17.73;13.75;;;7.60;99.90;;;;;;5008416;28;20549;-60
2021/11/06 07:36:52;;;;;;;20.48;13.02;;;7.60;99.90;;;;;;4992111;28;20033;-60
2021/11/06 07:39:17;;;;;;;19.05;12.35;;;7.60;99.90;;;;;;5010609;28;20037;-60
2021/11/06 07:41:44;;;;;;;20.55;13.77;;;7.60;99.90;;;;;;5010957;28;20390;-60
2021/11/06 07:44:11;;;;;;;20.17;13.38;;;7.60;99.90;;;;;;5010171;28;20068;-60
2021/11/06 07:46:37;;;;;;;15.68;12.80;;;7.60;99.90;;;;;;5011146;28;20061;-60
2021/11/06 07:49:03;;;;;;;21.80;14.30;;;7.60;99.90;;;;;;5008957;28;20489;-60
2021/11/06 07:51:28;;;;;;;17.67;12.27;;;7.60;99.90;;;;;;5009363;28;20398;-60
2021/11/06 07:53:58;;;;;;;18.65;12.57;;;7.60;99.90;;;;;;5010799;28;20034;-60
2021/11/06 07:59:30;;;;;;;19.02;12.85;;;7.60;99.90;;;;;;4986267;28;20085;-60
2021/11/06 08:01:55;;;;;;;17.70;11.45;;;7.60;99.90;;;;;;5010510;28;20045;-60
2021/11/06 08:04:21;;;;;;;16.08;11.50;;;7.70;99.90;;;;;;5012138;28;20029;-60
2021/11/06 08:06:46;;;;;;;15.23;12.40;;;7.70;99.90;;;;;;4994605;28;20402;-60
2021/11/06 08:09:13;;;;;;;19.92;12.15;;;7.70;99.90;;;;;;5012376;28;20045;-60
2021/11/06 08:12:12;;;;;;;19.05;12.55;;;7.70;99.90;;;;;;5012166;28;20072;-60
2021/11/06 08:14:37;;;;;;;17.25;11.75;;;7.80;99.90;;;;;;4994525;28;20037;-60
2021/11/06 08:20:28;;;;;;;13.70;10.35;;;7.80;99.90;;;;;;4978674;28;20030;-60
2021/11/06 08:22:54;;;;;;;16.30;10.93;;;7.80;99.90;;;;;;5011051;28;20018;-60
2021/11/06 08:26:23;;;;;;;14.90;10.82;;;7.80;99.90;;;;;;5009887;28;20026;-60
2021/11/06 08:28:48;;;;;;;16.67;10.80;;;8.00;99.90;;;;;;4965454;28;20510;-60
2021/11/06 08:45:25;;;;;;;15.60;9.75;;;8.30;99.90;;;;;;4770302;29;20063;-60
2021/11/06 08:47:51;;;;;;;14.45;9.93;;;8.40;99.90;;;;;;4850354;29;20507;-60
2021/11/06 08:50:23;;;;;;;16.17;10.30;;;8.40;99.90;;;;;;4857048;29;20033;-60
2021/11/06 08:52:50;;;;;;;14.10;9.32;;;8.40;99.90;;;;;;4959293;28;20454;-60
2021/11/06 08:55:16;;;;;;;13.40;10.05;;;8.40;99.90;;;;;;5006150;28;20030;-60
2021/11/06 08:57:42;;;;;;;12.15;8.52;;;8.40;99.90;;;;;;5011593;28;20025;-60
2021/11/06 09:00:15;;;;;;;15.32;9.27;;;8.40;99.90;;;;;;4979101;28;20031;-61
2021/11/06 09:02:41;;;;;;;12.15;8.23;;;8.40;99.90;;;;;;4999120;28;20034;-60
2021/11/06 09:05:09;;;;;;;12.75;9.15;;;8.50;99.90;;;;;;5011835;28;20030;-60
2021/11/06 09:07:35;;;;;;;14.88;8.63;;;8.60;99.90;;;;;;5005396;28;20026;-60
2021/11/06 09:10:04;;;;;;;13.60;9.52;;;8.60;99.90;;;;;;5009705;28;20108;-60
2021/11/06 09:12:30;;;;;;;18.92;10.68;;;8.70;99.90;;;;;;5011491;28;20394;-60
2021/11/06 09:14:55;;;;;;;14.45;8.35;;;8.70;99.90;;;;;;5011224;28;20506;-60
2021/11/06 09:17:21;;;;;;;14.90;8.07;;;8.80;99.90;;;;;;5011260;28;20045;-60
2021/11/06 09:19:47;;;;;;;13.48;7.63;;;8.80;99.80;;;;;;5005565;28;20026;-61
2021/11/06 09:22:13;;;;;;;14.00;8.27;;;8.90;99.60;;;;;;5011660;28;20513;-60
2021/11/06 09:24:40;;;;;;;15.60;8.52;;;9.00;99.50;;;;;;5011266;28;20106;-60
2021/11/06 09:27:06;;;;;;;15.35;7.18;;;9.00;99.20;;;;;;5009387;28;20084;-60
2021/11/06 09:29:32;;;;;;;11.38;7.22;;;9.10;99.20;;;;;;5008891;28;20108;-60
2021/11/06 09:31:57;;;;;;;10.63;7.20;;;9.10;98.90;;;;;;5006900;28;20055;-60
2021/11/06 09:34:23;;;;;;;13.13;8.02;;;9.10;98.80;;;;;;5011195;28;20108;-60
2021/11/06 09:36:48;;;;;;;11.27;7.65;;;9.10;98.70;;;;;;5011206;28;20029;-60
2021/11/06 09:39:14;;;;;;;12.10;6.95;;;9.10;98.70;;;;;;5010597;28;20032;-60
2021/11/06 09:41:40;;;;;;;10.40;7.22;;;9.10;98.60;;;;;;4996748;28;20030;-61
2021/11/06 09:44:07;;;;;;;10.40;7.03;;;9.10;98.60;;;;;;5014489;28;20026;-61
2021/11/06 09:46:33;;;;;;;9.43;6.55;;;9.20;98.90;;;;;;5013460;28;20084;-61
2021/11/06 09:48:59;;;;;;;15.40;8.13;;;9.20;98.60;;;;;;4995651;28;20033;-60
2021/11/06 09:51:25;;;;;;;12.70;7.22;;;9.20;98.40;;;;;;5004448;28;20050;-60
2021/11/06 09:53:52;;;;;;;9.20;6.03;;;9.20;98.20;;;;;;4989784;28;20045;-61
2021/11/06 09:56:24;;;;;;;9.30;5.90;;;9.30;98.30;;;;;;4995584;28;20038;-60
2021/11/06 09:58:54;;;;;;;10.50;6.47;;;9.30;98.20;;;;;;5014321;28;20097;-61
2021/11/06 10:01:21;;;;;;;14.32;8.52;;;9.40;98.30;;;;;;5009942;28;20374;-60
2021/11/06 10:03:46;;;;;;;11.18;7.07;;;9.50;98.10;;;;;;5014574;28;20481;-60
2021/11/06 10:10:11;;;;;;;10.55;6.10;;;9.70;98.00;;;;;;4951314;28;20930;-61
2021/11/06 10:12:56;;;;;;;8.63;5.80;;;9.90;97.80;;;;;;5013612;28;20034;-61
2021/11/06 10:15:57;;;;;;;10.55;6.47;;;10.10;97.20;;;;;;5012319;28;20478;-60
2021/11/06 10:18:25;;;;;;;11.52;6.43;;;10.20;96.90;;;;;;4993300;28;20042;-61
2021/11/06 10:21:03;;;;;;;9.60;6.15;;;10.20;96.80;;;;;;5009231;28;20037;-61
2021/11/06 10:23:32;;;;;;;9.10;5.70;;;10.30;96.60;;;;;;5011923;28;20025;-61
2021/11/06 10:26:14;;;;;;;8.73;5.57;;;10.40;96.50;;;;;;5011980;28;20065;-61
2021/11/06 10:28:40;;;;;;;6.97;5.07;;;10.40;96.30;;;;;;5010992;28;20074;-61
2021/11/06 10:31:06;;;;;;;10.63;5.53;;;10.40;95.80;;;;;;4991160;28;20026;-61
2021/11/06 10:33:42;;;;;;;8.30;5.30;;;10.40;95.70;;;;;;5008271;28;20061;-61
2021/11/06 10:36:19;;;;;;;8.48;4.80;;;10.40;95.90;;;;;;5008968;28;20034;-61
2021/11/06 10:38:59;;;;;;;6.82;4.50;;;10.50;96.00;;;;;;5008711;28;20215;-60
2021/11/06 10:41:34;;;;;;;8.68;4.88;;;10.50;95.90;;;;;;5008775;28;20026;-61
2021/11/06 10:44:00;;;;;;;7.25;4.85;;;10.50;95.50;;;;;;5008700;28;20029;-60
2021/11/06 10:46:28;;;;;;;7.50;4.63;;;10.50;95.50;;;;;;4991832;28;20429;-61
2021/11/06 10:48:55;;;;;;;8.30;4.43;;;10.50;95.60;;;;;;5011825;28;20021;-60
2021/11/06 10:51:21;;;;;;;8.40;5.13;;;10.50;95.50;;;;;;5010103;28;20025;-61
2021/11/06 10:53:52;;;;;;;7.50;5.13;;;10.50;95.40;;;;;;5011323;28;20061;-60
2021/11/06 10:56:23;;;;;;;5.75;4.45;;;10.50;95.30;;;;;;5011049;28;20045;-61
2021/11/06 10:58:52;;;;;;;7.93;5.20;;;10.50;95.30;;;;;;5009880;28;20026;-61
2021/11/06 11:01:26;;;;;;;8.07;4.72;;;10.50;95.50;;;;;;5010747;28;20394;-61
2021/11/06 11:04:02;;;;;;;6.05;4.32;;;10.60;95.50;;;;;;5010247;28;20018;-61
2021/11/06 11:06:37;;;;;;;7.10;4.60;;;10.60;95.40;;;;;;5008108;28;20478;-61
2021/11/06 11:09:04;;;;;;;9.05;5.10;;;10.60;95.40;;;;;;5006542;28;20487;-60
2021/11/06 11:11:54;;;;;;;7.93;4.32;;;10.60;95.30;;;;;;5008239;28;20038;-61
2021/11/06 11:14:26;;;;;;;6.97;4.22;;;10.60;95.30;;;;;;4989155;28;20363;-61
2021/11/06 11:17:04;;;;;;;7.70;4.55;;;10.70;95.20;;;;;;5007735;28;20520;-61
2021/11/06 11:19:41;;;;;;;6.60;4.20;;;10.70;95.10;;;;;;5008052;28;20021;-60
2021/11/06 11:22:23;;;;;;;6.45;4.68;;;10.80;95.00;;;;;;5007654;28;20088;-60
2021/11/06 11:24:50;;;;;;;6.07;4.03;;;10.80;94.90;;;;;;5008102;28;20028;-61
2021/11/06 11:27:47;;;;;;;6.55;3.97;;;10.90;94.90;;;;;;5008417;28;20040;-61
2021/11/06 11:30:13;;;;;;;5.55;3.50;;;10.90;94.70;;;;;;5008156;28;20045;-61
2021/11/06 11:32:38;;;;;;;7.50;4.10;;;11.00;94.70;;;;;;5008699;28;20084;-61
2021/11/06 11:35:04;;;;;;;6.07;3.80;;;11.00;94.60;;;;;;5008317;28;20026;-61
2021/11/06 11:37:29;;;;;;;7.60;4.13;;;11.00;94.50;;;;;;5009284;28;20080;-61
2021/11/06 11:40:00;;;;;;;6.32;3.97;;;11.00;94.30;;;;;;5011674;28;20030;-60
2021/11/06 11:49:12;;;;;;;5.35;3.97;;;11.00;94.20;;;;;;4928651;29;20074;-61
2021/11/06 11:52:09;;;;;;;6.40;4.40;;;11.00;94.50;;;;;;4991774;28;20046;-61
2021/11/06 11:54:57;;;;;;;6.22;4.07;;;11.00;94.40;;;;;;4992159;28;20069;-61
2021/11/06 11:57:23;;;;;;;9.15;4.70;;;11.10;94.30;;;;;;5010844;28;20033;-61
2021/11/06 11:59:49;;;;;;;6.93;4.43;;;11.00;94.40;;;;;;5009123;28;20048;-61
2021/11/06 12:02:52;;;;;;;8.98;4.85;;;11.10;94.40;;;;;;4992932;28;20038;-60
2021/11/06 12:05:37;;;;;;;6.30;4.00;;;11.10;94.40;;;;;;5010091;28;20033;-61
2021/11/06 12:08:21;;;;;;;7.50;5.38;;;11.20;94.50;;;;;;5010685;28;20033;-61
2021/11/06 12:10:48;;;;;;;8.13;5.30;;;11.30;94.50;;;;;;4993199;28;20025;-60
2021/11/06 12:13:29;;;;;;;8.68;4.95;;;11.40;94.30;;;;;;5010698;28;20026;-60
2021/11/06 12:15:58;;;;;;;6.55;4.53;;;11.40;94.30;;;;;;5009316;28;20030;-60
2021/11/06 12:18:32;;;;;;;7.30;4.60;;;11.40;94.20;;;;;;5010939;28;20026;-61
2021/11/06 12:21:22;;;;;;;5.75;4.50;;;11.70;94.20;;;;;;5009908;28;20040;-60
2021/11/06 12:23:58;;;;;;;7.63;4.57;;;11.80;94.00;;;;;;5010285;28;20025;-60
2021/11/06 12:26:32;;;;;;;7.28;5.00;;;11.80;93.70;;;;;;5009356;28;20033;-61
2021/11/06 12:29:03;;;;;;;7.85;4.80;;;11.70;93.70;;;;;;5008193;28;20033;-61
2021/11/06 12:31:51;;;;;;;;;;;;;;;;;;;;;
2021/11/06 12:34:51;;;;;;;;;;;;;;;;;;;;;
2021/11/06 12:37:36;;;;;;;9.73;5.72;;;11.80;93.80;;;;;;5004357;28;20029;-61
2021/11/06 12:40:13;;;;;;;8.60;5.10;;;12.00;93.90;;;;;;5006532;28;20025;-61
2021/11/06 12:43:04;;;;;;;10.07;5.50;;;12.00;93.70;;;;;;5007186;28;20030;-61
2021/11/06 12:45:29;;;;;;;7.38;4.88;;;12.00;93.60;;;;;;4985851;28;20170;-61
2021/11/06 12:48:27;;;;;;;;;;;;;;;;;;;;;
2021/11/06 12:51:00;;;;;;;9.30;5.13;;;11.90;93.70;;;;;;5007388;28;20025;-61
2021/11/06 12:53:30;;;;;;;8.02;5.38;;;11.90;94.00;;;;;;5005595;28;20034;-61
2021/11/06 12:56:08;;;;;;;6.53;4.55;;;11.90;94.20;;;;;;4989258;28;20096;-61
2021/11/06 12:58:35;;;;;;;6.70;4.90;;;12.00;94.20;;;;;;5010211;28;20030;-61
2021/11/06 13:01:21;;;;;;;8.05;4.35;;;12.40;94.50;;;;;;5010337;28;20076;-61
2021/11/06 13:03:48;;;;;;;9.95;4.65;;;13.40;93.40;;;;;;5010615;28;20030;-61
2021/11/06 13:06:20;;;;;;;7.95;4.35;;;13.90;91.80;;;;;;5011575;28;20041;-61
2021/11/06 13:09:12;;;;;;;5.53;3.88;;;14.30;91.00;;;;;;5012239;28;20057;-61
2021/11/06 13:11:56;;;;;;;7.03;3.90;;;15.00;89.90;;;;;;5007641;28;20026;-61
2021/11/06 13:14:50;;;;;;;6.20;4.40;;;15.00;86.80;;;;;;5009027;28;20386;-61
2021/11/06 13:17:27;;;;;;;6.78;4.15;;;14.70;87.00;;;;;;5013893;28;20041;-61
2021/11/06 13:20:04;;;;;;;6.50;4.47;;;14.60;88.30;;;;;;5012128;28;20029;-61
2021/11/06 13:22:30;;;;;;;5.18;3.88;;;14.70;87.30;;;;;;4996261;28;20033;-61
2021/11/06 13:25:16;;;;;;;5.45;4.00;;;14.50;87.00;;;;;;5014242;28;20041;-61
2021/11/06 13:28:25;;;;;;;;;;;;;;;;;;;;;